Tampa, Florida
Traffic Map
Current Weather Conditions
Tampa, Florida
Few Clouds
Few Clouds
21°
Feels Like: 21°
Wind Chill: 21° Ceiling: Unl
Heat Index: 21° Visibility: 10mi
Dew Point: Wind: 8mph
Humidity: 36% Direction: 240° (WSW)
Pressure: 30.3in Gusts: 0mph
Raw Report DataKTPA 301653Z 24007KT 10SM FEW250 21/06 A3030 RMK AO2 SLP260 T02110056
Traffic Incident Summary
Active as of:
Severity:
Category:
InformationThere was an issue retrieving the traffic information for this location. Please try a different location or try again shortly.
Advertisements
Track Severe Weather on mobile